createdAt,value
2023-05-22T00:01:32.627Z,8.67
2023-05-22T00:04:00.316Z,11.67
2023-05-22T00:06:28.035Z,8.10
2023-05-22T00:08:55.240Z,8.17
2023-05-22T00:11:23.316Z,8.70
2023-05-22T00:13:50.783Z,10.70
2023-05-22T00:16:18.229Z,7.60
2023-05-22T00:18:45.795Z,10.33
2023-05-22T00:21:13.475Z,8.50
2023-05-22T00:23:41.883Z,9.33
2023-05-22T00:26:09.372Z,9.47
2023-05-22T00:28:36.718Z,10.17
2023-05-22T00:31:04.395Z,8.40
2023-05-22T00:33:31.824Z,8.53
2023-05-22T00:35:59.210Z,11.77
2023-05-22T00:38:34.030Z,11.13
2023-05-22T00:41:02.496Z,9.27
2023-05-22T00:43:29.994Z,8.83
2023-05-22T00:45:57.506Z,9.20
2023-05-22T00:48:24.858Z,7.83
2023-05-22T00:50:52.641Z,9.50
2023-05-22T00:53:20.797Z,10.77
2023-05-22T00:55:48.446Z,8.60
2023-05-22T00:58:18.621Z,9.30
2023-05-22T01:00:47.209Z,8.73
2023-05-22T01:03:14.998Z,12.13
2023-05-22T01:05:43.449Z,8.77
2023-05-22T01:08:11.338Z,12.03
2023-05-22T01:10:39.562Z,8.43
2023-05-22T01:13:31.758Z,8.87
2023-05-22T01:16:30.645Z,9.27
2023-05-22T01:19:03.186Z,10.03
2023-05-22T01:21:46.495Z,7.73
2023-05-22T01:24:19.844Z,9.37
2023-05-22T01:27:28.934Z,7.43
2023-05-22T01:30:15.309Z,8.47
2023-05-22T01:32:43.940Z,7.83
2023-05-22T01:35:12.064Z,8.80
2023-05-22T01:37:39.981Z,9.47
2023-05-22T01:40:08.107Z,8.27
2023-05-22T01:42:35.708Z,8.90
2023-05-22T01:45:03.110Z,10.57
2023-05-22T01:47:30.454Z,8.30
2023-05-22T01:49:57.844Z,9.20
2023-05-22T01:52:32.398Z,9.97
2023-05-22T01:55:04.039Z,11.23
2023-05-22T01:57:58.201Z,10.07
2023-05-22T02:00:25.813Z,9.30
2023-05-22T02:02:57.778Z,10.57
2023-05-22T02:05:25.868Z,10.20
2023-05-22T02:07:53.389Z,9.20
2023-05-22T02:10:20.881Z,10.00
2023-05-22T02:12:48.362Z,8.77
2023-05-22T02:15:15.716Z,8.50
2023-05-22T02:17:43.266Z,8.50
2023-05-22T02:20:15.601Z,9.33
2023-05-22T02:22:47.270Z,10.50
2023-05-22T02:25:15.268Z,9.60
2023-05-22T02:27:46.111Z,9.17
2023-05-22T02:30:14.426Z,37.70
2023-05-22T02:32:42.233Z,10.30
2023-05-22T02:35:10.181Z,9.77
2023-05-22T02:37:37.940Z,9.23
2023-05-22T02:40:08.785Z,9.80
2023-05-22T02:42:36.087Z,14.40
2023-05-22T02:45:03.522Z,12.57
2023-05-22T02:47:31.094Z,9.00
2023-05-22T02:49:58.736Z,11.93
2023-05-22T02:52:26.161Z,10.60
2023-05-22T02:54:53.457Z,10.63
2023-05-22T02:57:20.834Z,9.50
2023-05-22T02:59:48.522Z,11.40
2023-05-22T03:02:16.768Z,12.17
2023-05-22T03:04:44.290Z,8.97
2023-05-22T03:07:12.751Z,11.23
2023-05-22T03:09:40.014Z,12.73
2023-05-22T03:12:07.742Z,8.43
2023-05-22T03:14:35.656Z,10.57
2023-05-22T03:17:03.079Z,9.83
2023-05-22T03:19:30.485Z,12.37
2023-05-22T03:21:58.548Z,11.40
2023-05-22T03:24:27.436Z,18.77
2023-05-22T03:26:54.985Z,9.50
2023-05-22T03:29:22.554Z,13.07
2023-05-22T03:31:49.919Z,13.47
2023-05-22T03:34:17.354Z,12.93
2023-05-22T03:36:45.485Z,12.97
2023-05-22T03:39:12.734Z,11.23
2023-05-22T03:41:40.066Z,12.37
2023-05-22T03:44:07.566Z,11.10
2023-05-22T03:46:34.884Z,11.33
2023-05-22T03:49:02.301Z,19.93
2023-05-22T03:51:29.908Z,9.23
2023-05-22T03:53:57.368Z,12.90
2023-05-22T03:56:24.893Z,12.27
2023-05-22T03:58:52.439Z,12.07
2023-05-22T04:01:20.058Z,9.07
2023-05-22T04:03:47.817Z,9.57
2023-05-22T04:06:15.387Z,9.93
2023-05-22T04:08:42.795Z,12.07
2023-05-22T04:11:10.374Z,9.70
2023-05-22T04:13:37.795Z,8.90
2023-05-22T04:16:05.544Z,11.50
2023-05-22T04:18:33.272Z,18.10
2023-05-22T04:21:01.256Z,72.27
2023-05-22T04:23:28.844Z,39.10
2023-05-22T04:25:56.206Z,33.03
2023-05-22T04:28:24.050Z,41.00
2023-05-22T04:30:51.958Z,20.23
2023-05-22T04:33:19.380Z,15.40
2023-05-22T04:35:46.882Z,18.13
2023-05-22T04:38:14.535Z,9.30
2023-05-22T04:40:42.297Z,9.40
2023-05-22T04:43:10.148Z,10.30
2023-05-22T04:45:37.852Z,12.30
2023-05-22T04:48:06.044Z,11.20
2023-05-22T04:50:33.662Z,13.37
2023-05-22T04:53:04.673Z,13.70
2023-05-22T04:55:35.374Z,13.20
2023-05-22T04:58:03.267Z,13.63
2023-05-22T05:00:31.032Z,15.23
2023-05-22T05:03:00.720Z,12.20
2023-05-22T05:05:28.084Z,34.17
2023-05-22T05:07:55.993Z,21.33
2023-05-22T05:10:23.358Z,27.10
2023-05-22T05:12:51.145Z,36.73
2023-05-22T05:15:18.513Z,39.30
2023-05-22T05:17:45.984Z,40.83
2023-05-22T05:20:14.921Z,18.37
2023-05-22T05:22:44.214Z,17.90
2023-05-22T05:25:11.962Z,13.03
2023-05-22T05:27:39.578Z,12.77
2023-05-22T05:30:07.742Z,9.50
2023-05-22T05:32:35.276Z,10.90
2023-05-22T05:35:02.647Z,9.33
2023-05-22T05:37:30.216Z,9.60
2023-05-22T05:39:57.663Z,11.30
2023-05-22T05:42:25.188Z,9.97
2023-05-22T05:44:52.771Z,9.70
2023-05-22T05:47:19.989Z,9.23
2023-05-22T05:49:47.471Z,9.97
2023-05-22T05:52:15.187Z,10.13
2023-05-22T05:54:47.770Z,10.50
2023-05-22T05:57:15.662Z,7.77
2023-05-22T05:59:43.870Z,8.33
2023-05-22T06:02:11.453Z,10.30
2023-05-22T06:04:39.213Z,8.20
2023-05-22T06:07:06.846Z,8.48
2023-05-22T06:09:34.496Z,6.13
2023-05-22T06:12:02.011Z,8.85
2023-05-22T06:14:29.670Z,7.22
2023-05-22T06:17:00.537Z,8.98
2023-05-22T06:19:28.155Z,9.05
2023-05-22T06:21:55.624Z,7.05
2023-05-22T06:24:23.672Z,6.70
2023-05-22T06:26:51.172Z,9.45
2023-05-22T06:29:18.894Z,6.20
2023-05-22T06:31:46.605Z,10.63
2023-05-22T06:34:14.374Z,6.07
2023-05-22T06:36:42.989Z,6.95
2023-05-22T06:39:10.696Z,7.95
2023-05-22T06:41:38.867Z,9.32
2023-05-22T06:44:07.055Z,7.68
2023-05-22T06:46:34.771Z,7.97
2023-05-22T06:49:02.331Z,8.55
2023-05-22T06:51:29.939Z,7.20
2023-05-22T06:54:00.589Z,7.28
2023-05-22T06:56:28.213Z,6.88
2023-05-22T06:58:59.097Z,6.95
2023-05-22T07:01:27.345Z,9.35
2023-05-22T07:03:54.857Z,5.80
2023-05-22T07:06:23.338Z,9.40
2023-05-22T07:08:53.577Z,6.55
2023-05-22T07:11:21.250Z,7.90
2023-05-22T07:13:48.874Z,6.80
2023-05-22T07:16:16.766Z,6.13
2023-05-22T07:18:50.331Z,14.07
2023-05-22T07:21:27.684Z,6.53
2023-05-22T07:23:55.290Z,7.28
2023-05-22T07:26:22.908Z,6.07
2023-05-22T07:28:51.221Z,6.63
2023-05-22T07:31:19.090Z,6.13
2023-05-22T07:33:47.748Z,8.10
2023-05-22T07:36:15.096Z,7.03
2023-05-22T07:38:44.070Z,6.97
2023-05-22T07:41:11.645Z,9.13
2023-05-22T07:43:39.045Z,8.38
2023-05-22T07:46:06.776Z,8.85
2023-05-22T07:48:34.824Z,6.03
2023-05-22T07:51:04.083Z,6.90
2023-05-22T07:53:32.234Z,7.88
2023-05-22T07:55:59.831Z,12.88
2023-05-22T07:58:28.781Z,6.53
2023-05-22T08:00:56.525Z,10.07
2023-05-22T08:03:24.484Z,5.53
2023-05-22T08:06:01.401Z,5.95
2023-05-22T08:08:31.825Z,9.93
2023-05-22T08:11:04.467Z,6.82
2023-05-22T08:13:33.048Z,8.85
2023-05-22T08:16:01.920Z,7.38
2023-05-22T08:18:30.300Z,15.73
2023-05-22T08:20:58.448Z,6.35
2023-05-22T08:23:27.275Z,6.60
2023-05-22T08:25:56.489Z,7.25
2023-05-22T08:28:24.297Z,6.20
2023-05-22T08:30:52.001Z,6.05
2023-05-22T08:33:20.125Z,7.32
2023-05-22T08:35:47.498Z,7.00
2023-05-22T08:38:17.070Z,5.78
2023-05-22T08:40:46.359Z,6.10
2023-05-22T08:43:14.061Z,7.40
2023-05-22T08:45:43.009Z,6.43
2023-05-22T08:48:13.497Z,7.38
2023-05-22T08:50:44.228Z,6.13
2023-05-22T08:53:13.938Z,7.85
2023-05-22T08:55:41.355Z,8.77
2023-05-22T08:58:09.652Z,6.80
2023-05-22T09:00:37.626Z,7.63
2023-05-22T09:03:07.058Z,5.50
2023-05-22T09:05:36.858Z,6.63
2023-05-22T09:08:16.031Z,8.02
2023-05-22T09:10:47.207Z,9.50
2023-05-22T09:13:31.682Z,11.57
2023-05-22T09:16:02.949Z,8.60
2023-05-22T09:18:33.191Z,6.55
2023-05-22T09:21:04.922Z,7.97
2023-05-22T09:23:34.649Z,5.20
2023-05-22T09:26:02.936Z,8.70
2023-05-22T09:28:34.758Z,6.10
2023-05-22T09:31:04.144Z,5.57
2023-05-22T09:33:32.709Z,5.65
2023-05-22T09:36:01.752Z,5.20
2023-05-22T09:38:31.760Z,7.13
2023-05-22T09:41:04.678Z,5.70
2023-05-22T09:43:32.925Z,10.43
2023-05-22T09:46:04.710Z,5.00
2023-05-22T09:48:38.962Z,8.18
2023-05-22T09:51:07.215Z,6.20
2023-05-22T09:53:35.887Z,8.30
2023-05-22T09:56:04.331Z,5.85
2023-05-22T09:58:33.459Z,5.53
2023-05-22T10:01:09.088Z,6.13
2023-05-22T10:03:36.787Z,7.55
2023-05-22T10:06:04.957Z,8.18
2023-05-22T10:08:37.610Z,6.57
2023-05-22T10:11:06.980Z,7.45
2023-05-22T10:13:36.241Z,6.28
2023-05-22T10:16:05.220Z,8.57
2023-05-22T10:18:32.833Z,6.30
2023-05-22T10:21:00.149Z,7.13
2023-05-22T10:23:28.660Z,7.18
2023-05-22T10:25:56.156Z,8.55
2023-05-22T10:28:28.436Z,7.78
2023-05-22T10:31:09.767Z,7.13
2023-05-22T10:33:43.164Z,8.35
2023-05-22T10:36:15.353Z,6.97
2023-05-22T10:39:13.688Z,10.05
2023-05-22T10:41:41.237Z,7.63
2023-05-22T10:44:08.577Z,7.78
2023-05-22T10:46:38.774Z,7.55
2023-05-22T10:49:11.511Z,6.55
2023-05-22T10:51:39.439Z,8.60
2023-05-22T10:54:07.243Z,5.75
2023-05-22T10:56:35.824Z,6.03
2023-05-22T10:59:06.368Z,5.50
2023-05-22T11:01:38.810Z,4.85
2023-05-22T11:04:09.303Z,7.70
2023-05-22T11:06:36.941Z,6.07
2023-05-22T11:09:24.209Z,7.82
2023-05-22T11:12:28.164Z,5.93
2023-05-22T11:14:58.271Z,7.90
2023-05-22T11:17:34.328Z,7.70
2023-05-22T11:20:32.145Z,9.43
2023-05-22T11:23:05.680Z,5.93
2023-05-22T11:25:39.019Z,7.55
2023-05-22T11:28:08.404Z,10.43
2023-05-22T11:30:39.146Z,17.73
2023-05-22T11:33:07.075Z,6.38
2023-05-22T11:35:36.661Z,5.78
2023-05-22T11:38:09.362Z,10.48
2023-05-22T11:40:37.296Z,8.18
2023-05-22T11:43:42.771Z,4.85
2023-05-22T11:46:14.804Z,4.38
2023-05-22T11:48:56.057Z,6.95
2023-05-22T11:51:29.615Z,5.15
2023-05-22T11:53:59.246Z,6.20
2023-05-22T11:56:28.581Z,4.50
2023-05-22T12:02:03.469Z,5.97
2023-05-22T12:04:33.859Z,5.45
2023-05-22T12:07:03.836Z,6.05
2023-05-22T12:09:44.969Z,7.60
2023-05-22T12:12:14.208Z,4.90
2023-05-22T12:14:51.889Z,4.88
2023-05-22T12:17:21.133Z,5.07
2023-05-22T12:20:09.556Z,8.65
2023-05-22T12:26:07.854Z,4.68
2023-05-22T12:29:37.459Z,4.82
2023-05-22T12:32:07.721Z,5.28
2023-05-22T12:34:36.052Z,8.55
2023-05-22T12:37:14.250Z,5.88
2023-05-22T12:40:01.348Z,10.57
2023-05-22T12:42:28.900Z,5.55
2023-05-22T12:45:22.178Z,5.80
2023-05-22T12:51:17.495Z,7.82
2023-05-22T12:53:46.058Z,4.15
2023-05-22T12:56:14.137Z,5.60
2023-05-22T12:58:41.655Z,5.25
2023-05-22T13:01:09.514Z,5.00
2023-05-22T13:03:37.424Z,4.57
2023-05-22T13:06:07.696Z,5.00
2023-05-22T13:08:35.762Z,5.63
2023-05-22T13:11:03.779Z,5.63
2023-05-22T13:13:33.807Z,4.28
2023-05-22T13:16:01.596Z,9.95
2023-05-22T13:18:29.380Z,5.88
2023-05-22T13:20:58.116Z,5.43
2023-05-22T13:23:26.791Z,5.90
2023-05-22T13:25:55.494Z,4.65
2023-05-22T13:28:23.249Z,6.13
2023-05-22T13:30:51.541Z,4.47
2023-05-22T13:33:19.162Z,5.20
2023-05-22T13:35:46.701Z,5.15
2023-05-22T13:38:14.112Z,6.45
2023-05-22T13:40:41.674Z,5.18
2023-05-22T13:43:09.689Z,7.78
2023-05-22T13:45:37.381Z,7.50
2023-05-22T13:48:05.317Z,5.93
2023-05-22T13:50:33.133Z,7.22
2023-05-22T13:53:00.469Z,6.55
2023-05-22T13:55:28.165Z,5.32
2023-05-22T13:57:55.960Z,9.52
2023-05-22T14:00:25.085Z,4.90
2023-05-22T14:02:55.400Z,8.73
2023-05-22T14:05:31.387Z,5.65
2023-05-22T14:07:59.375Z,6.30
2023-05-22T14:10:30.247Z,4.50
2023-05-22T14:12:58.088Z,4.45
2023-05-22T14:15:25.794Z,5.47
2023-05-22T14:17:53.441Z,6.53
2023-05-22T14:20:21.321Z,4.15
2023-05-22T14:25:27.507Z,6.97
2023-05-22T14:27:55.376Z,5.03
2023-05-22T14:30:23.279Z,4.45
2023-05-22T14:32:54.329Z,11.93
2023-05-22T14:35:22.227Z,6.15
2023-05-22T14:37:50.169Z,5.30
2023-05-22T14:40:17.849Z,5.03
2023-05-22T14:42:46.652Z,6.10
2023-05-22T14:45:21.843Z,11.23
2023-05-22T14:47:49.577Z,5.43
2023-05-22T14:50:20.926Z,5.82
2023-05-22T14:52:49.395Z,6.88
2023-05-22T14:55:18.165Z,4.30
2023-05-22T14:57:45.781Z,6.25
2023-05-22T15:00:14.544Z,5.25
2023-05-22T15:02:42.274Z,4.93
2023-05-22T15:05:10.648Z,8.02
2023-05-22T15:10:09.651Z,7.57
2023-05-22T15:12:37.752Z,11.70
2023-05-22T15:15:05.848Z,6.13
2023-05-22T15:17:33.384Z,7.78
2023-05-22T15:20:01.295Z,5.20
2023-05-22T15:22:29.025Z,6.20
2023-05-22T15:25:12.368Z,5.75
2023-05-22T15:27:40.359Z,5.75
2023-05-22T15:30:10.241Z,6.40
2023-05-22T15:32:38.024Z,6.03
2023-05-22T15:35:07.293Z,11.10
2023-05-22T15:37:36.831Z,14.70
2023-05-22T15:40:04.833Z,8.05
2023-05-22T15:42:34.354Z,5.88
2023-05-22T15:45:02.177Z,7.10
2023-05-22T15:47:30.734Z,5.88
2023-05-22T15:49:58.349Z,7.03
2023-05-22T15:52:26.228Z,5.60
2023-05-22T15:54:55.044Z,4.43
2023-05-22T15:57:24.485Z,6.82
2023-05-22T15:59:51.958Z,7.38
2023-05-22T16:02:21.129Z,8.90
2023-05-22T16:04:50.398Z,8.25
2023-05-22T16:07:19.466Z,10.88
2023-05-22T16:09:47.104Z,7.53
2023-05-22T16:12:14.831Z,18.45
2023-05-22T16:14:42.551Z,7.70
2023-05-22T16:17:10.137Z,7.70
2023-05-22T16:19:37.586Z,7.68
2023-05-22T16:22:05.473Z,8.07
2023-05-22T16:24:33.234Z,7.00
2023-05-22T16:27:01.124Z,9.38
2023-05-22T16:29:28.423Z,8.95
2023-05-22T16:31:57.105Z,7.00
2023-05-22T16:34:24.751Z,10.07
2023-05-22T16:36:52.168Z,8.10
2023-05-22T16:39:19.758Z,7.47
2023-05-22T16:41:47.210Z,7.85
2023-05-22T16:44:14.561Z,6.93
2023-05-22T16:46:41.991Z,7.75
2023-05-22T16:49:09.609Z,9.27
2023-05-22T16:51:36.878Z,10.13
2023-05-22T16:54:04.609Z,7.95
2023-05-22T16:56:34.333Z,9.60
2023-05-22T16:59:02.424Z,6.35
2023-05-22T17:01:30.047Z,8.85
2023-05-22T17:03:57.447Z,7.30
2023-05-22T17:06:24.891Z,6.30
2023-05-22T17:08:52.208Z,9.35
2023-05-22T17:11:19.724Z,7.38
2023-05-22T17:13:47.308Z,8.32
2023-05-22T17:16:14.710Z,6.10
2023-05-22T17:18:42.022Z,8.00
2023-05-22T17:21:09.466Z,7.45
2023-05-22T17:23:37.701Z,11.75
2023-05-22T17:26:05.163Z,9.00
2023-05-22T17:28:32.837Z,6.53
2023-05-22T17:31:01.205Z,7.32
2023-05-22T17:33:28.706Z,6.95
2023-05-22T17:35:56.409Z,8.50
2023-05-22T17:38:23.791Z,7.30
2023-05-22T17:40:52.511Z,7.85
2023-05-22T17:43:20.243Z,7.00
2023-05-22T17:45:50.254Z,6.85
2023-05-22T17:48:24.011Z,6.88
2023-05-22T17:50:52.480Z,7.57
2023-05-22T17:53:21.191Z,8.50
2023-05-22T17:55:49.923Z,9.15
2023-05-22T17:58:17.558Z,8.50
2023-05-22T18:00:46.198Z,8.40
2023-05-22T18:03:13.678Z,7.45
2023-05-22T18:05:41.395Z,7.88
2023-05-22T18:08:08.882Z,7.00
2023-05-22T18:10:36.887Z,7.38
2023-05-22T18:13:04.431Z,6.13
2023-05-22T18:15:33.327Z,9.18
2023-05-22T18:18:01.968Z,8.82
2023-05-22T18:20:29.538Z,11.02
2023-05-22T18:22:57.204Z,9.75
2023-05-22T18:25:24.740Z,8.25
2023-05-22T18:27:52.161Z,6.90
2023-05-22T18:30:19.539Z,9.15
2023-05-22T18:32:47.024Z,11.13
2023-05-22T18:35:14.426Z,11.93
2023-05-22T18:37:42.487Z,12.43
2023-05-22T18:40:11.365Z,8.90
2023-05-22T18:42:39.196Z,10.02
2023-05-22T18:45:07.562Z,7.55
2023-05-22T18:47:35.247Z,11.45
2023-05-22T18:50:04.476Z,10.38
2023-05-22T18:52:31.995Z,11.38
2023-05-22T18:54:59.554Z,10.23
2023-05-22T18:57:26.882Z,8.63
2023-05-22T18:59:57.129Z,7.93
2023-05-22T19:02:24.669Z,7.10
2023-05-22T19:04:52.184Z,6.90
2023-05-22T19:07:21.321Z,6.83
2023-05-22T19:09:57.621Z,9.57
2023-05-22T19:12:44.236Z,9.70
2023-05-22T19:19:25.287Z,8.03
2023-05-22T19:21:53.512Z,7.07
2023-05-22T19:24:21.365Z,6.63
2023-05-22T19:26:48.890Z,7.93
2023-05-22T19:29:16.413Z,12.03
2023-05-22T19:31:43.838Z,7.23
2023-05-22T19:34:11.417Z,8.47
2023-05-22T19:36:38.934Z,7.77
2023-05-22T19:39:06.677Z,13.03
2023-05-22T19:41:34.174Z,7.00
2023-05-22T19:44:01.464Z,7.70
2023-05-22T19:46:29.084Z,6.73
2023-05-22T19:48:57.175Z,6.63
2023-05-22T19:51:24.561Z,8.13
2023-05-22T19:53:52.116Z,7.07
2023-05-22T19:56:19.619Z,8.23
2023-05-22T19:58:47.128Z,7.07
2023-05-22T20:01:14.528Z,6.17
2023-05-22T20:03:42.650Z,6.93
2023-05-22T20:06:10.065Z,11.63
2023-05-22T20:08:37.887Z,7.93
2023-05-22T20:11:05.282Z,8.97
2023-05-22T20:13:32.872Z,7.03
2023-05-22T20:16:04.027Z,8.63
2023-05-22T20:18:34.485Z,12.03
2023-05-22T20:21:01.822Z,8.10
2023-05-22T20:23:29.272Z,6.93
2023-05-22T20:25:56.848Z,7.73
2023-05-22T20:28:24.283Z,6.93
2023-05-22T20:30:51.854Z,9.00
2023-05-22T20:33:19.817Z,10.43
2023-05-22T20:35:50.256Z,8.40
2023-05-22T20:38:19.372Z,8.67
2023-05-22T20:40:47.991Z,8.60
2023-05-22T20:43:15.538Z,7.13
2023-05-22T20:45:46.120Z,9.10
2023-05-22T20:48:14.011Z,8.57
2023-05-22T20:50:42.433Z,7.37
2023-05-22T20:53:09.933Z,9.87
2023-05-22T20:55:37.433Z,8.57
2023-05-22T20:58:04.895Z,7.83
2023-05-22T21:00:32.428Z,8.37
2023-05-22T21:03:01.576Z,8.47
2023-05-22T21:05:29.042Z,8.93
2023-05-22T21:07:56.547Z,8.33
2023-05-22T21:10:24.109Z,9.20
2023-05-22T21:12:51.758Z,8.33
2023-05-22T21:15:19.157Z,8.40
2023-05-22T21:17:46.760Z,10.13
2023-05-22T21:20:14.128Z,10.20
2023-05-22T21:22:41.515Z,7.63
2023-05-22T21:25:09.745Z,7.67
2023-05-22T21:27:37.154Z,10.80
2023-05-22T21:30:04.658Z,9.70
2023-05-22T21:32:32.165Z,8.57
2023-05-22T21:34:59.620Z,8.20
2023-05-22T21:37:26.942Z,7.87
2023-05-22T21:39:54.499Z,8.53
2023-05-22T21:42:44.538Z,7.30
2023-05-22T21:45:13.937Z,11.03
2023-05-22T21:47:41.431Z,9.43
2023-05-22T21:50:09.091Z,10.03
2023-05-22T21:56:06.816Z,10.13
2023-05-22T21:58:34.477Z,10.40
2023-05-22T22:01:01.837Z,10.40
2023-05-22T22:03:29.598Z,7.80
2023-05-22T22:05:57.159Z,11.60
2023-05-22T22:08:24.719Z,8.27
2023-05-22T22:11:12.656Z,9.13
2023-05-22T22:13:40.342Z,9.40
2023-05-22T22:16:08.101Z,8.60
2023-05-22T22:18:36.697Z,10.13
2023-05-22T22:21:04.896Z,7.37
2023-05-22T22:23:32.118Z,9.67
2023-05-22T22:25:59.607Z,8.13
2023-05-22T22:28:26.929Z,8.90
2023-05-22T22:30:55.380Z,8.80
2023-05-22T22:33:23.190Z,8.63
2023-05-22T22:35:50.711Z,9.57
2023-05-22T22:38:19.032Z,7.77
2023-05-22T22:40:46.563Z,7.73
2023-05-22T22:43:13.969Z,9.00
2023-05-22T22:45:41.616Z,7.27
2023-05-22T22:48:09.378Z,8.33
2023-05-22T22:50:37.522Z,9.67
2023-05-22T22:53:05.922Z,12.37
2023-05-22T22:55:33.554Z,9.77
2023-05-22T22:58:02.282Z,9.70
2023-05-22T23:00:29.658Z,9.20
2023-05-22T23:02:57.117Z,8.33
2023-05-22T23:05:24.623Z,8.87
2023-05-22T23:07:52.135Z,10.17
2023-05-22T23:10:19.457Z,8.53
2023-05-22T23:12:48.826Z,7.37
2023-05-22T23:15:16.494Z,8.60
2023-05-22T23:17:44.125Z,8.10
2023-05-22T23:20:11.688Z,8.00
2023-05-22T23:22:39.079Z,8.63
2023-05-22T23:25:06.752Z,7.40
2023-05-22T23:27:33.874Z,7.77
2023-05-22T23:30:01.061Z,8.67
2023-05-22T23:32:28.855Z,7.67
2023-05-22T23:34:56.119Z,9.63
2023-05-22T23:37:23.545Z,8.13
2023-05-22T23:39:51.015Z,10.47
2023-05-22T23:42:19.096Z,9.13
2023-05-22T23:44:46.570Z,10.13
2023-05-22T23:47:13.893Z,7.53
2023-05-22T23:49:41.180Z,9.00
2023-05-22T23:52:08.685Z,7.50
2023-05-22T23:54:36.227Z,8.33
2023-05-22T23:57:03.919Z,8.80
2023-05-22T23:59:31.357Z,8.83
